Accueil
METAR-TAF:

METAR-TAF

Aéroports :

Turin, Italie

Bric della Croce

latitude: 45-02N, longitude: 007-44E, altitude: 709 m

Observation

Le bulletin a été fait il y a 25 minutes, à 09:55 UTC
Vent 12 kt de sud/sud-ouest
Température 7°C
Humidité 76%
Pression 1006 hPa
Visibilité 10 km ou plus
pas de nuages en-dessous de 1500 mètres et pas de cumulonimbus.

METAR: LIMK 280955Z 20012KT CAVOK 07/03 Q1006 RMK FEW FEW090 VAL NIL VIS MIN 9999

Heure: 12:20 (10:20 UTC)


TAF: absent

Observations et prévisions météorologiques de plus de 4000 aéroports (messages METAR et TAF).

Les stations disponibles sont représentées par des disques jaunes et rouges sur la carte.

Passer la souris dessus pour voir le nom de la station.

Cliquer dessus pour voir les observations et prévisions météorologiques.

Pour changer de carte: cliquez sur les boutons verts avec une croix noire pour zoomer, sur le bouton vert avec un tiret pour effectuer un zoom arrière, ou sur les flèches vertes pour les cartes adjacentes.


METAR-TAF: